sensor_id;sensor_type;location;lat;lon;timestamp;temperature;humidity
7000;DHT22;3540;53.242;10.408;2023-03-14T00:00:54;11.40;99.90
7000;DHT22;3540;53.242;10.408;2023-03-14T00:03:20;11.40;99.90
7000;DHT22;3540;53.242;10.408;2023-03-14T00:05:45;11.40;99.90
7000;DHT22;3540;53.242;10.408;2023-03-14T00:08:11;11.50;99.90
7000;DHT22;3540;53.242;10.408;2023-03-14T00:10:37;11.60;99.90
7000;DHT22;3540;53.242;10.408;2023-03-14T00:13:03;11.60;99.90
7000;DHT22;3540;53.242;10.408;2023-03-14T00:15:28;11.60;99.90
7000;DHT22;3540;53.242;10.408;2023-03-14T00:17:54;11.70;99.90
7000;DHT22;3540;53.242;10.408;2023-03-14T00:20:20;11.80;99.90
7000;DHT22;3540;53.242;10.408;2023-03-14T00:22:45;11.80;99.90
7000;DHT22;3540;53.242;10.408;2023-03-14T00:25:12;11.70;99.90
7000;DHT22;3540;53.242;10.408;2023-03-14T00:27:38;11.70;99.90
7000;DHT22;3540;53.242;10.408;2023-03-14T00:30:05;11.80;99.90
7000;DHT22;3540;53.242;10.408;2023-03-14T00:32:31;11.80;99.90
7000;DHT22;3540;53.242;10.408;2023-03-14T00:34:57;11.80;99.90
7000;DHT22;3540;53.242;10.408;2023-03-14T00:37:22;11.90;99.90
7000;DHT22;3540;53.242;10.408;2023-03-14T00:39:48;11.90;99.90
7000;DHT22;3540;53.242;10.408;2023-03-14T00:42:14;11.90;99.90
7000;DHT22;3540;53.242;10.408;2023-03-14T00:44:39;11.80;99.90
7000;DHT22;3540;53.242;10.408;2023-03-14T00:47:05;11.70;99.90
7000;DHT22;3540;53.242;10.408;2023-03-14T00:49:30;11.70;99.90
7000;DHT22;3540;53.242;10.408;2023-03-14T00:51:56;11.60;99.90
7000;DHT22;3540;53.242;10.408;2023-03-14T00:54:22;11.50;99.90
7000;DHT22;3540;53.242;10.408;2023-03-14T00:56:47;11.40;99.90
7000;DHT22;3540;53.242;10.408;2023-03-14T00:59:13;11.30;99.90
7000;DHT22;3540;53.242;10.408;2023-03-14T01:01:39;11.10;99.90
7000;DHT22;3540;53.242;10.408;2023-03-14T01:04:06;11.00;99.90
7000;DHT22;3540;53.242;10.408;2023-03-14T01:06:31;11.00;99.90
7000;DHT22;3540;53.242;10.408;2023-03-14T01:08:57;11.00;99.90
7000;DHT22;3540;53.242;10.408;2023-03-14T01:11:29;11.10;99.90
7000;DHT22;3540;53.242;10.408;2023-03-14T01:13:55;11.10;99.90
7000;DHT22;3540;53.242;10.408;2023-03-14T01:16:22;11.10;99.90
7000;DHT22;3540;53.242;10.408;2023-03-14T01:18:48;11.10;99.90
7000;DHT22;3540;53.242;10.408;2023-03-14T01:21:21;11.10;99.90
7000;DHT22;3540;53.242;10.408;2023-03-14T01:23:47;11.10;99.90
7000;DHT22;3540;53.242;10.408;2023-03-14T01:26:15;11.00;99.90
7000;DHT22;3540;53.242;10.408;2023-03-14T01:28:41;11.00;99.90
7000;DHT22;3540;53.242;10.408;2023-03-14T01:31:09;11.00;99.90
7000;DHT22;3540;53.242;10.408;2023-03-14T01:33:35;11.00;99.90
7000;DHT22;3540;53.242;10.408;2023-03-14T01:36:01;10.90;99.90
7000;DHT22;3540;53.242;10.408;2023-03-14T01:38:34;10.90;99.90
7000;DHT22;3540;53.242;10.408;2023-03-14T01:41:01;10.80;99.90
7000;DHT22;3540;53.242;10.408;2023-03-14T01:43:27;10.90;99.90
7000;DHT22;3540;53.242;10.408;2023-03-14T01:51:34;10.90;99.90
7000;DHT22;3540;53.242;10.408;2023-03-14T01:57:17;10.80;99.90
7000;DHT22;3540;53.242;10.408;2023-03-14T01:59:58;10.80;99.90
7000;DHT22;3540;53.242;10.408;2023-03-14T02:02:26;10.80;99.90
7000;DHT22;3540;53.242;10.408;2023-03-14T02:04:54;10.70;99.90
7000;DHT22;3540;53.242;10.408;2023-03-14T02:09:53;10.40;99.90
7000;DHT22;3540;53.242;10.408;2023-03-14T02:12:20;10.30;99.90
7000;DHT22;3540;53.242;10.408;2023-03-14T02:14:46;10.20;99.90
7000;DHT22;3540;53.242;10.408;2023-03-14T02:17:15;10.20;99.90
7000;DHT22;3540;53.242;10.408;2023-03-14T02:22:38;10.00;99.90
7000;DHT22;3540;53.242;10.408;2023-03-14T02:27:34;9.90;99.90
7000;DHT22;3540;53.242;10.408;2023-03-14T02:30:01;9.80;99.90
7000;DHT22;3540;53.242;10.408;2023-03-14T02:32:31;9.70;99.90
7000;DHT22;3540;53.242;10.408;2023-03-14T02:34:59;9.70;99.90
7000;DHT22;3540;53.242;10.408;2023-03-14T02:37:35;9.60;99.90
7000;DHT22;3540;53.242;10.408;2023-03-14T02:40:02;9.50;99.90
7000;DHT22;3540;53.242;10.408;2023-03-14T02:42:29;9.50;99.90
7000;DHT22;3540;53.242;10.408;2023-03-14T02:45:25;9.40;99.90
7000;DHT22;3540;53.242;10.408;2023-03-14T02:47:51;9.30;99.90
7000;DHT22;3540;53.242;10.408;2023-03-14T02:50:22;9.20;99.90
7000;DHT22;3540;53.242;10.408;2023-03-14T02:52:49;9.20;99.90
7000;DHT22;3540;53.242;10.408;2023-03-14T02:55:14;9.20;99.90
7000;DHT22;3540;53.242;10.408;2023-03-14T02:57:40;9.30;99.90
7000;DHT22;3540;53.242;10.408;2023-03-14T03:00:06;9.30;99.90
7000;DHT22;3540;53.242;10.408;2023-03-14T03:02:33;9.30;99.90
7000;DHT22;3540;53.242;10.408;2023-03-14T03:04:58;9.40;99.90
7000;DHT22;3540;53.242;10.408;2023-03-14T03:07:24;9.40;99.90
7000;DHT22;3540;53.242;10.408;2023-03-14T03:09:50;9.40;99.90
7000;DHT22;3540;53.242;10.408;2023-03-14T03:12:16;9.40;99.90
7000;DHT22;3540;53.242;10.408;2023-03-14T03:14:41;9.50;99.90
7000;DHT22;3540;53.242;10.408;2023-03-14T03:17:07;9.50;99.90
7000;DHT22;3540;53.242;10.408;2023-03-14T03:19:34;9.50;99.90
7000;DHT22;3540;53.242;10.408;2023-03-14T03:22:00;9.60;99.90
7000;DHT22;3540;53.242;10.408;2023-03-14T03:24:26;9.60;99.90
7000;DHT22;3540;53.242;10.408;2023-03-14T03:26:52;9.60;99.90
7000;DHT22;3540;53.242;10.408;2023-03-14T03:29:18;9.70;99.90
7000;DHT22;3540;53.242;10.408;2023-03-14T03:31:44;9.70;99.90
7000;DHT22;3540;53.242;10.408;2023-03-14T03:34:14;9.70;99.90
7000;DHT22;3540;53.242;10.408;2023-03-14T03:36:40;9.80;99.90
7000;DHT22;3540;53.242;10.408;2023-03-14T03:39:05;9.80;99.90
7000;DHT22;3540;53.242;10.408;2023-03-14T03:41:31;9.80;99.90
7000;DHT22;3540;53.242;10.408;2023-03-14T03:43:57;9.80;99.90
7000;DHT22;3540;53.242;10.408;2023-03-14T03:46:23;9.90;99.90
7000;DHT22;3540;53.242;10.408;2023-03-14T03:48:57;9.90;99.90
7000;DHT22;3540;53.242;10.408;2023-03-14T03:51:24;10.10;99.90
7000;DHT22;3540;53.242;10.408;2023-03-14T03:53:50;10.20;99.90
7000;DHT22;3540;53.242;10.408;2023-03-14T03:56:15;10.30;99.90
7000;DHT22;3540;53.242;10.408;2023-03-14T03:58:41;10.40;99.90
7000;DHT22;3540;53.242;10.408;2023-03-14T04:01:08;10.40;99.90
7000;DHT22;3540;53.242;10.408;2023-03-14T04:03:34;10.40;99.90
7000;DHT22;3540;53.242;10.408;2023-03-14T04:06:06;10.40;99.90
7000;DHT22;3540;53.242;10.408;2023-03-14T04:08:31;10.40;99.90
7000;DHT22;3540;53.242;10.408;2023-03-14T04:10:58;10.40;99.90
7000;DHT22;3540;53.242;10.408;2023-03-14T04:13:25;10.50;99.90
7000;DHT22;3540;53.242;10.408;2023-03-14T04:15:52;10.40;99.90
7000;DHT22;3540;53.242;10.408;2023-03-14T04:18:18;10.30;99.90
7000;DHT22;3540;53.242;10.408;2023-03-14T04:20:44;10.30;99.90
7000;DHT22;3540;53.242;10.408;2023-03-14T04:23:10;10.40;99.90
7000;DHT22;3540;53.242;10.408;2023-03-14T04:25:35;10.40;99.90
7000;DHT22;3540;53.242;10.408;2023-03-14T04:28:02;10.30;99.90
7000;DHT22;3540;53.242;10.408;2023-03-14T04:30:29;10.30;99.90
7000;DHT22;3540;53.242;10.408;2023-03-14T04:32:55;10.30;99.90
7000;DHT22;3540;53.242;10.408;2023-03-14T04:35:21;10.30;99.90
7000;DHT22;3540;53.242;10.408;2023-03-14T04:37:46;10.40;99.90
7000;DHT22;3540;53.242;10.408;2023-03-14T04:40:15;10.50;99.90
7000;DHT22;3540;53.242;10.408;2023-03-14T04:42:41;10.50;99.90
7000;DHT22;3540;53.242;10.408;2023-03-14T04:45:07;10.50;99.90
7000;DHT22;3540;53.242;10.408;2023-03-14T04:47:33;10.60;99.90
7000;DHT22;3540;53.242;10.408;2023-03-14T04:49:59;10.60;99.90
7000;DHT22;3540;53.242;10.408;2023-03-14T04:52:25;10.70;99.90
7000;DHT22;3540;53.242;10.408;2023-03-14T04:54:51;10.70;99.90
7000;DHT22;3540;53.242;10.408;2023-03-14T04:57:16;10.80;99.90
7000;DHT22;3540;53.242;10.408;2023-03-14T04:59:42;10.80;99.90
7000;DHT22;3540;53.242;10.408;2023-03-14T05:02:08;10.80;99.90
7000;DHT22;3540;53.242;10.408;2023-03-14T05:04:33;10.80;99.90
7000;DHT22;3540;53.242;10.408;2023-03-14T05:06:59;10.80;99.90
7000;DHT22;3540;53.242;10.408;2023-03-14T05:09:25;10.90;99.90
7000;DHT22;3540;53.242;10.408;2023-03-14T05:11:51;10.90;99.90
7000;DHT22;3540;53.242;10.408;2023-03-14T05:14:16;10.90;99.90
7000;DHT22;3540;53.242;10.408;2023-03-14T05:16:42;10.90;99.90
7000;DHT22;3540;53.242;10.408;2023-03-14T05:19:08;10.90;99.90
7000;DHT22;3540;53.242;10.408;2023-03-14T05:21:33;10.90;99.90
7000;DHT22;3540;53.242;10.408;2023-03-14T05:23:59;10.90;99.90
7000;DHT22;3540;53.242;10.408;2023-03-14T05:26:25;10.90;99.90
7000;DHT22;3540;53.242;10.408;2023-03-14T05:28:50;10.80;99.90
7000;DHT22;3540;53.242;10.408;2023-03-14T05:31:16;10.80;99.90
7000;DHT22;3540;53.242;10.408;2023-03-14T05:33:41;10.70;99.90
7000;DHT22;3540;53.242;10.408;2023-03-14T05:36:08;10.70;99.90
7000;DHT22;3540;53.242;10.408;2023-03-14T05:38:33;10.60;99.90
7000;DHT22;3540;53.242;10.408;2023-03-14T05:40:59;10.70;99.90
7000;DHT22;3540;53.242;10.408;2023-03-14T05:43:25;10.60;99.90
7000;DHT22;3540;53.242;10.408;2023-03-14T05:45:50;10.60;99.90
7000;DHT22;3540;53.242;10.408;2023-03-14T05:48:16;10.60;99.90
7000;DHT22;3540;53.242;10.408;2023-03-14T05:50:42;10.50;99.90
7000;DHT22;3540;53.242;10.408;2023-03-14T05:53:08;10.50;99.90
7000;DHT22;3540;53.242;10.408;2023-03-14T05:55:33;10.40;99.90
7000;DHT22;3540;53.242;10.408;2023-03-14T05:57:59;10.20;99.90
7000;DHT22;3540;53.242;10.408;2023-03-14T06:00:25;10.20;99.90
7000;DHT22;3540;53.242;10.408;2023-03-14T06:02:50;10.20;99.90
7000;DHT22;3540;53.242;10.408;2023-03-14T06:05:16;10.20;99.90
7000;DHT22;3540;53.242;10.408;2023-03-14T06:07:42;10.20;99.90
7000;DHT22;3540;53.242;10.408;2023-03-14T06:10:08;10.20;99.90
7000;DHT22;3540;53.242;10.408;2023-03-14T06:12:34;10.20;99.90
7000;DHT22;3540;53.242;10.408;2023-03-14T06:14:59;10.20;99.90
7000;DHT22;3540;53.242;10.408;2023-03-14T06:17:25;10.20;99.90
7000;DHT22;3540;53.242;10.408;2023-03-14T06:19:50;10.20;99.90
7000;DHT22;3540;53.242;10.408;2023-03-14T06:22:16;10.10;99.90
7000;DHT22;3540;53.242;10.408;2023-03-14T06:24:41;10.10;99.90
7000;DHT22;3540;53.242;10.408;2023-03-14T06:27:07;10.10;99.90
7000;DHT22;3540;53.242;10.408;2023-03-14T06:29:33;10.10;99.90
7000;DHT22;3540;53.242;10.408;2023-03-14T06:31:58;10.10;99.90
7000;DHT22;3540;53.242;10.408;2023-03-14T06:34:24;10.10;99.90
7000;DHT22;3540;53.242;10.408;2023-03-14T06:36:50;10.10;99.90
7000;DHT22;3540;53.242;10.408;2023-03-14T06:39:15;10.10;99.90
7000;DHT22;3540;53.242;10.408;2023-03-14T06:41:41;10.10;99.90
7000;DHT22;3540;53.242;10.408;2023-03-14T06:44:06;10.10;99.90
7000;DHT22;3540;53.242;10.408;2023-03-14T06:46:32;10.10;99.90
7000;DHT22;3540;53.242;10.408;2023-03-14T06:48:57;10.10;99.90
7000;DHT22;3540;53.242;10.408;2023-03-14T06:51:23;10.10;99.90
7000;DHT22;3540;53.242;10.408;2023-03-14T06:53:49;10.10;99.90
7000;DHT22;3540;53.242;10.408;2023-03-14T06:56:14;10.10;99.90
7000;DHT22;3540;53.242;10.408;2023-03-14T06:58:40;10.10;99.90
7000;DHT22;3540;53.242;10.408;2023-03-14T07:01:06;10.10;99.90
7000;DHT22;3540;53.242;10.408;2023-03-14T07:03:40;10.10;99.90
7000;DHT22;3540;53.242;10.408;2023-03-14T07:06:06;10.10;99.90
7000;DHT22;3540;53.242;10.408;2023-03-14T07:08:31;10.10;99.90
7000;DHT22;3540;53.242;10.408;2023-03-14T07:10:57;10.00;99.90
7000;DHT22;3540;53.242;10.408;2023-03-14T07:13:22;10.00;99.90
7000;DHT22;3540;53.242;10.408;2023-03-14T07:15:48;9.90;99.90
7000;DHT22;3540;53.242;10.408;2023-03-14T07:18:14;9.90;99.90
7000;DHT22;3540;53.242;10.408;2023-03-14T07:20:39;9.80;99.90
7000;DHT22;3540;53.242;10.408;2023-03-14T07:23:05;9.60;99.90
7000;DHT22;3540;53.242;10.408;2023-03-14T07:25:31;9.50;99.90
7000;DHT22;3540;53.242;10.408;2023-03-14T07:27:57;9.40;99.90
7000;DHT22;3540;53.242;10.408;2023-03-14T07:30:23;9.30;99.90
7000;DHT22;3540;53.242;10.408;2023-03-14T07:32:48;9.30;99.90
7000;DHT22;3540;53.242;10.408;2023-03-14T07:35:14;9.30;99.90
7000;DHT22;3540;53.242;10.408;2023-03-14T07:37:40;9.30;99.90
7000;DHT22;3540;53.242;10.408;2023-03-14T07:40:06;9.30;99.90
7000;DHT22;3540;53.242;10.408;2023-03-14T07:42:32;9.30;99.90
7000;DHT22;3540;53.242;10.408;2023-03-14T07:44:58;9.40;99.90
7000;DHT22;3540;53.242;10.408;2023-03-14T07:47:23;9.50;99.90
7000;DHT22;3540;53.242;10.408;2023-03-14T07:49:49;9.60;99.90
7000;DHT22;3540;53.242;10.408;2023-03-14T07:52:15;9.60;99.90
7000;DHT22;3540;53.242;10.408;2023-03-14T07:54:40;9.80;99.90
7000;DHT22;3540;53.242;10.408;2023-03-14T07:57:06;9.80;99.90
7000;DHT22;3540;53.242;10.408;2023-03-14T07:59:32;9.90;99.90
7000;DHT22;3540;53.242;10.408;2023-03-14T08:01:57;9.90;99.90
7000;DHT22;3540;53.242;10.408;2023-03-14T08:04:24;10.10;99.90
7000;DHT22;3540;53.242;10.408;2023-03-14T08:06:49;10.20;99.90
7000;DHT22;3540;53.242;10.408;2023-03-14T08:09:15;10.40;99.90
7000;DHT22;3540;53.242;10.408;2023-03-14T08:11:41;10.50;99.90
7000;DHT22;3540;53.242;10.408;2023-03-14T08:14:06;10.60;99.90
7000;DHT22;3540;53.242;10.408;2023-03-14T08:16:32;10.70;99.90
7000;DHT22;3540;53.242;10.408;2023-03-14T08:18:58;10.80;99.90
7000;DHT22;3540;53.242;10.408;2023-03-14T08:21:23;10.90;99.90
7000;DHT22;3540;53.242;10.408;2023-03-14T08:23:49;10.90;99.90
7000;DHT22;3540;53.242;10.408;2023-03-14T08:26:15;11.00;99.90
7000;DHT22;3540;53.242;10.408;2023-03-14T08:28:40;11.10;99.90
7000;DHT22;3540;53.242;10.408;2023-03-14T08:31:06;11.30;99.90
7000;DHT22;3540;53.242;10.408;2023-03-14T08:33:32;11.10;99.90
7000;DHT22;3540;53.242;10.408;2023-03-14T08:35:59;11.20;99.90
7000;DHT22;3540;53.242;10.408;2023-03-14T08:38:25;11.20;99.90
7000;DHT22;3540;53.242;10.408;2023-03-14T08:40:58;11.30;99.90
7000;DHT22;3540;53.242;10.408;2023-03-14T08:43:25;11.30;99.90
7000;DHT22;3540;53.242;10.408;2023-03-14T08:45:51;11.30;99.90
7000;DHT22;3540;53.242;10.408;2023-03-14T08:48:17;11.40;99.90
7000;DHT22;3540;53.242;10.408;2023-03-14T08:50:42;11.60;99.90
7000;DHT22;3540;53.242;10.408;2023-03-14T08:53:09;11.80;99.90
7000;DHT22;3540;53.242;10.408;2023-03-14T08:55:34;11.80;99.90
7000;DHT22;3540;53.242;10.408;2023-03-14T08:58:00;11.80;99.90
7000;DHT22;3540;53.242;10.408;2023-03-14T09:00:26;11.90;99.90
7000;DHT22;3540;53.242;10.408;2023-03-14T09:02:52;11.90;99.90
7000;DHT22;3540;53.242;10.408;2023-03-14T09:05:17;12.00;99.90
7000;DHT22;3540;53.242;10.408;2023-03-14T09:07:43;12.20;99.90
7000;DHT22;3540;53.242;10.408;2023-03-14T09:10:09;12.40;99.90
7000;DHT22;3540;53.242;10.408;2023-03-14T09:12:35;12.50;99.90
7000;DHT22;3540;53.242;10.408;2023-03-14T09:15:01;12.40;99.90
7000;DHT22;3540;53.242;10.408;2023-03-14T09:17:27;12.50;99.90
7000;DHT22;3540;53.242;10.408;2023-03-14T09:19:53;12.40;99.90
7000;DHT22;3540;53.242;10.408;2023-03-14T09:22:18;12.30;99.90
7000;DHT22;3540;53.242;10.408;2023-03-14T09:24:44;12.30;99.90
7000;DHT22;3540;53.242;10.408;2023-03-14T09:27:10;12.40;99.90
7000;DHT22;3540;53.242;10.408;2023-03-14T09:29:35;12.50;99.90
7000;DHT22;3540;53.242;10.408;2023-03-14T09:32:01;12.40;99.90
7000;DHT22;3540;53.242;10.408;2023-03-14T09:34:27;12.50;99.90
7000;DHT22;3540;53.242;10.408;2023-03-14T09:36:52;12.30;99.90
7000;DHT22;3540;53.242;10.408;2023-03-14T09:39:20;12.40;99.90
7000;DHT22;3540;53.242;10.408;2023-03-14T09:41:51;12.40;99.90
7000;DHT22;3540;53.242;10.408;2023-03-14T09:44:32;12.40;99.90
7000;DHT22;3540;53.242;10.408;2023-03-14T09:47:05;12.60;99.90
7000;DHT22;3540;53.242;10.408;2023-03-14T09:49:37;12.70;99.90
7000;DHT22;3540;53.242;10.408;2023-03-14T09:52:22;12.70;99.90
7000;DHT22;3540;53.242;10.408;2023-03-14T09:55:13;12.60;99.90
7000;DHT22;3540;53.242;10.408;2023-03-14T09:57:39;12.60;99.90
7000;DHT22;3540;53.242;10.408;2023-03-14T10:00:27;12.70;99.90
7000;DHT22;3540;53.242;10.408;2023-03-14T10:05:40;12.70;99.90
7000;DHT22;3540;53.242;10.408;2023-03-14T10:08:06;12.70;99.90
7000;DHT22;3540;53.242;10.408;2023-03-14T10:10:32;12.80;99.90
7000;DHT22;3540;53.242;10.408;2023-03-14T10:13:20;12.90;99.90
7000;DHT22;3540;53.242;10.408;2023-03-14T10:16:00;13.00;99.90
7000;DHT22;3540;53.242;10.408;2023-03-14T10:18:29;12.70;99.90
7000;DHT22;3540;53.242;10.408;2023-03-14T10:21:28;12.60;99.90
7000;DHT22;3540;53.242;10.408;2023-03-14T10:23:54;12.40;99.90
7000;DHT22;3540;53.242;10.408;2023-03-14T10:26:29;12.20;99.90
7000;DHT22;3540;53.242;10.408;2023-03-14T10:29:16;12.00;99.90
7000;DHT22;3540;53.242;10.408;2023-03-14T10:34:23;11.90;99.90
7000;DHT22;3540;53.242;10.408;2023-03-14T10:36:53;11.50;99.90
7000;DHT22;3540;53.242;10.408;2023-03-14T10:42:01;10.90;99.90
7000;DHT22;3540;53.242;10.408;2023-03-14T10:44:28;10.70;99.90
7000;DHT22;3540;53.242;10.408;2023-03-14T10:47:00;10.50;99.90
7000;DHT22;3540;53.242;10.408;2023-03-14T10:49:35;10.50;99.90
7000;DHT22;3540;53.242;10.408;2023-03-14T10:52:14;10.50;99.90
7000;DHT22;3540;53.242;10.408;2023-03-14T10:54:40;10.50;99.90
7000;DHT22;3540;53.242;10.408;2023-03-14T10:57:06;10.50;99.90
7000;DHT22;3540;53.242;10.408;2023-03-14T10:59:37;9.70;99.90
7000;DHT22;3540;53.242;10.408;2023-03-14T11:02:25;8.70;99.90
7000;DHT22;3540;53.242;10.408;2023-03-14T11:04:59;8.00;99.90
7000;DHT22;3540;53.242;10.408;2023-03-14T11:07:39;7.80;99.90
7000;DHT22;3540;53.242;10.408;2023-03-14T11:15:34;7.30;99.90
7000;DHT22;3540;53.242;10.408;2023-03-14T11:18:48;7.20;99.90
7000;DHT22;3540;53.242;10.408;2023-03-14T11:27:23;6.80;99.90
7000;DHT22;3540;53.242;10.408;2023-03-14T11:32:56;6.50;99.90
7000;DHT22;3540;53.242;10.408;2023-03-14T11:35:36;6.30;99.90
7000;DHT22;3540;53.242;10.408;2023-03-14T11:40:41;6.00;99.90
7000;DHT22;3540;53.242;10.408;2023-03-14T11:43:20;5.70;99.90
7000;DHT22;3540;53.242;10.408;2023-03-14T11:45:50;5.50;99.90
7000;DHT22;3540;53.242;10.408;2023-03-14T11:48:50;5.30;99.90
7000;DHT22;3540;53.242;10.408;2023-03-14T11:51:30;5.20;99.90
7000;DHT22;3540;53.242;10.408;2023-03-14T11:54:18;5.20;99.90
7000;DHT22;3540;53.242;10.408;2023-03-14T11:56:54;5.10;99.90
7000;DHT22;3540;53.242;10.408;2023-03-14T12:02:16;4.90;99.90
7000;DHT22;3540;53.242;10.408;2023-03-14T12:07:31;4.80;99.90
7000;DHT22;3540;53.242;10.408;2023-03-14T12:10:02;4.80;99.90
7000;DHT22;3540;53.242;10.408;2023-03-14T12:12:29;4.80;99.90
7000;DHT22;3540;53.242;10.408;2023-03-14T12:15:02;4.70;99.90
7000;DHT22;3540;53.242;10.408;2023-03-14T12:17:39;4.70;99.90
7000;DHT22;3540;53.242;10.408;2023-03-14T12:22:46;4.50;99.90
7000;DHT22;3540;53.242;10.408;2023-03-14T12:25:20;4.40;99.90
7000;DHT22;3540;53.242;10.408;2023-03-14T12:28:03;4.20;99.90
7000;DHT22;3540;53.242;10.408;2023-03-14T12:33:25;4.20;99.90
7000;DHT22;3540;53.242;10.408;2023-03-14T12:35:58;4.30;99.90
7000;DHT22;3540;53.242;10.408;2023-03-14T12:38:39;4.30;99.90
7000;DHT22;3540;53.242;10.408;2023-03-14T12:41:21;4.30;99.90
7000;DHT22;3540;53.242;10.408;2023-03-14T12:43:48;4.20;99.90
7000;DHT22;3540;53.242;10.408;2023-03-14T12:49:04;4.30;99.90
7000;DHT22;3540;53.242;10.408;2023-03-14T12:51:42;4.30;99.90
7000;DHT22;3540;53.242;10.408;2023-03-14T12:54:34;4.30;99.90
7000;DHT22;3540;53.242;10.408;2023-03-14T12:59:45;4.20;99.90
7000;DHT22;3540;53.242;10.408;2023-03-14T13:05:22;4.20;99.90
7000;DHT22;3540;53.242;10.408;2023-03-14T13:13:23;4.20;99.90
7000;DHT22;3540;53.242;10.408;2023-03-14T13:15:59;4.30;99.90
7000;DHT22;3540;53.242;10.408;2023-03-14T13:18:40;4.40;99.90
7000;DHT22;3540;53.242;10.408;2023-03-14T13:21:24;4.50;99.90
7000;DHT22;3540;53.242;10.408;2023-03-14T13:24:07;4.60;99.90
7000;DHT22;3540;53.242;10.408;2023-03-14T13:26:44;4.70;99.90
7000;DHT22;3540;53.242;10.408;2023-03-14T13:31:47;4.90;99.90
7000;DHT22;3540;53.242;10.408;2023-03-14T13:34:13;4.90;99.90
7000;DHT22;3540;53.242;10.408;2023-03-14T13:36:39;5.00;99.90
7000;DHT22;3540;53.242;10.408;2023-03-14T13:39:11;4.90;99.90
7000;DHT22;3540;53.242;10.408;2023-03-14T13:41:38;5.00;99.90
7000;DHT22;3540;53.242;10.408;2023-03-14T13:44:07;5.00;99.90
7000;DHT22;3540;53.242;10.408;2023-03-14T13:46:35;5.00;99.90
7000;DHT22;3540;53.242;10.408;2023-03-14T13:49:04;4.70;99.90
7000;DHT22;3540;53.242;10.408;2023-03-14T13:51:31;4.60;99.90
7000;DHT22;3540;53.242;10.408;2023-03-14T13:54:00;4.60;99.90
7000;DHT22;3540;53.242;10.408;2023-03-14T13:56:31;4.50;99.90
7000;DHT22;3540;53.242;10.408;2023-03-14T13:58:58;4.60;99.90
7000;DHT22;3540;53.242;10.408;2023-03-14T14:03:58;4.80;99.90
7000;DHT22;3540;53.242;10.408;2023-03-14T14:06:36;5.10;99.90
7000;DHT22;3540;53.242;10.408;2023-03-14T14:09:14;5.20;99.90
7000;DHT22;3540;53.242;10.408;2023-03-14T14:14:26;5.50;99.90
7000;DHT22;3540;53.242;10.408;2023-03-14T14:16:54;5.50;99.90
7000;DHT22;3540;53.242;10.408;2023-03-14T14:19:21;5.60;99.90
7000;DHT22;3540;53.242;10.408;2023-03-14T14:21:49;5.70;99.90
7000;DHT22;3540;53.242;10.408;2023-03-14T14:24:15;5.70;99.90
7000;DHT22;3540;53.242;10.408;2023-03-14T14:26:48;5.60;99.90
7000;DHT22;3540;53.242;10.408;2023-03-14T14:29:31;5.60;99.90
7000;DHT22;3540;53.242;10.408;2023-03-14T14:32:14;5.60;99.90
7000;DHT22;3540;53.242;10.408;2023-03-14T14:34:41;5.60;99.90
7000;DHT22;3540;53.242;10.408;2023-03-14T14:37:40;5.70;99.90
7000;DHT22;3540;53.242;10.408;2023-03-14T14:40:16;5.70;99.90
7000;DHT22;3540;53.242;10.408;2023-03-14T14:42:44;5.70;99.90
7000;DHT22;3540;53.242;10.408;2023-03-14T14:45:14;5.90;99.90
7000;DHT22;3540;53.242;10.408;2023-03-14T14:52:57;5.70;99.90
7000;DHT22;3540;53.242;10.408;2023-03-14T14:55:32;5.60;99.90
7000;DHT22;3540;53.242;10.408;2023-03-14T14:58:12;5.60;99.90
7000;DHT22;3540;53.242;10.408;2023-03-14T15:00:41;5.60;99.90
7000;DHT22;3540;53.242;10.408;2023-03-14T15:03:15;5.70;99.90
7000;DHT22;3540;53.242;10.408;2023-03-14T15:05:41;5.70;99.90
7000;DHT22;3540;53.242;10.408;2023-03-14T15:08:10;5.80;99.90
7000;DHT22;3540;53.242;10.408;2023-03-14T15:10:36;5.70;99.90
7000;DHT22;3540;53.242;10.408;2023-03-14T15:13:02;5.70;99.90
7000;DHT22;3540;53.242;10.408;2023-03-14T15:15:28;5.60;99.90
7000;DHT22;3540;53.242;10.408;2023-03-14T15:17:53;5.60;99.90
7000;DHT22;3540;53.242;10.408;2023-03-14T15:20:19;5.70;99.90
7000;DHT22;3540;53.242;10.408;2023-03-14T15:22:46;5.70;99.90
7000;DHT22;3540;53.242;10.408;2023-03-14T15:25:12;5.60;99.90
7000;DHT22;3540;53.242;10.408;2023-03-14T15:27:38;5.60;99.90
7000;DHT22;3540;53.242;10.408;2023-03-14T15:30:14;5.60;99.90
7000;DHT22;3540;53.242;10.408;2023-03-14T15:32:41;5.50;99.90
7000;DHT22;3540;53.242;10.408;2023-03-14T15:35:07;5.50;99.90
7000;DHT22;3540;53.242;10.408;2023-03-14T15:37:34;5.40;99.90
7000;DHT22;3540;53.242;10.408;2023-03-14T15:40:00;5.40;99.90
7000;DHT22;3540;53.242;10.408;2023-03-14T15:42:28;5.50;99.90
7000;DHT22;3540;53.242;10.408;2023-03-14T15:44:54;5.50;99.90
7000;DHT22;3540;53.242;10.408;2023-03-14T15:47:19;5.50;99.90
7000;DHT22;3540;53.242;10.408;2023-03-14T15:49:45;5.40;99.90
7000;DHT22;3540;53.242;10.408;2023-03-14T15:52:10;5.50;99.90
7000;DHT22;3540;53.242;10.408;2023-03-14T15:54:36;5.50;99.90
7000;DHT22;3540;53.242;10.408;2023-03-14T15:57:02;5.40;99.90
7000;DHT22;3540;53.242;10.408;2023-03-14T15:59:28;5.50;99.90
7000;DHT22;3540;53.242;10.408;2023-03-14T16:01:56;5.50;99.90
7000;DHT22;3540;53.242;10.408;2023-03-14T16:04:22;5.60;99.90
7000;DHT22;3540;53.242;10.408;2023-03-14T16:06:47;5.60;99.90
7000;DHT22;3540;53.242;10.408;2023-03-14T16:09:13;5.60;99.90
7000;DHT22;3540;53.242;10.408;2023-03-14T16:11:39;5.50;99.90
7000;DHT22;3540;53.242;10.408;2023-03-14T16:14:05;5.50;99.90
7000;DHT22;3540;53.242;10.408;2023-03-14T16:16:31;5.60;99.90
7000;DHT22;3540;53.242;10.408;2023-03-14T16:18:56;5.50;99.90
7000;DHT22;3540;53.242;10.408;2023-03-14T16:21:22;5.40;99.90
7000;DHT22;3540;53.242;10.408;2023-03-14T16:23:48;5.40;99.90
7000;DHT22;3540;53.242;10.408;2023-03-14T16:26:16;5.40;99.90
7000;DHT22;3540;53.242;10.408;2023-03-14T16:28:42;5.40;99.90
7000;DHT22;3540;53.242;10.408;2023-03-14T16:31:10;5.40;99.90
7000;DHT22;3540;53.242;10.408;2023-03-14T16:33:37;5.40;99.90
7000;DHT22;3540;53.242;10.408;2023-03-14T16:36:05;5.30;99.90
7000;DHT22;3540;53.242;10.408;2023-03-14T16:38:33;5.20;99.90
7000;DHT22;3540;53.242;10.408;2023-03-14T16:41:02;5.30;99.90
7000;DHT22;3540;53.242;10.408;2023-03-14T16:43:29;5.20;99.90
7000;DHT22;3540;53.242;10.408;2023-03-14T16:45:58;5.20;99.90
7000;DHT22;3540;53.242;10.408;2023-03-14T16:48:24;5.20;99.90
7000;DHT22;3540;53.242;10.408;2023-03-14T16:50:50;5.20;99.90
7000;DHT22;3540;53.242;10.408;2023-03-14T16:53:16;5.30;99.90
7000;DHT22;3540;53.242;10.408;2023-03-14T16:55:42;5.30;99.90
7000;DHT22;3540;53.242;10.408;2023-03-14T16:58:09;5.30;99.90
7000;DHT22;3540;53.242;10.408;2023-03-14T17:00:35;5.20;99.90
7000;DHT22;3540;53.242;10.408;2023-03-14T17:03:01;5.20;99.90
7000;DHT22;3540;53.242;10.408;2023-03-14T17:05:26;5.10;99.90
7000;DHT22;3540;53.242;10.408;2023-03-14T17:07:52;5.10;99.90
7000;DHT22;3540;53.242;10.408;2023-03-14T17:10:18;5.10;99.90
7000;DHT22;3540;53.242;10.408;2023-03-14T17:12:44;5.00;99.90
7000;DHT22;3540;53.242;10.408;2023-03-14T17:15:11;5.00;99.90
7000;DHT22;3540;53.242;10.408;2023-03-14T17:17:37;5.00;99.90
7000;DHT22;3540;53.242;10.408;2023-03-14T17:20:04;4.90;99.90